Time;durP1;ratioP1;P1;durP2;ratioP2;P2;SDS_P1;SDS_P2;PMS_P1;PMS_P2;Temp;Humidity;BMP_temperature;BMP_pressure;BME280_temperature;BME280_humidity;BME280_pressure;Samples;Min_cycle;Max_cycle;Signal;HPM_P1;HPM_P2
2022/01/03 00:01:35;;;;;;;18.80;2.60;;;;;;;;;;5110519;28;20082;-66
2022/01/03 00:04:01;;;;;;;16.58;2.47;;;;;;;;;;5113765;27;20040;-66
2022/01/03 00:06:28;;;;;;;15.10;2.20;;;;;;;;;;5128205;27;20074;-66
2022/01/03 00:08:56;;;;;;;15.48;2.92;;;;;;;;;;5131147;27;20190;-66
2022/01/03 00:11:22;;;;;;;20.30;2.55;;;;;;;;;;5131303;27;20079;-65
2022/01/03 00:13:50;;;;;;;19.05;2.70;;;;;;;;;;5129037;27;20044;-65
2022/01/03 00:16:17;;;;;;;16.27;2.50;;;;;;;;;;5129720;27;20848;-66
2022/01/03 00:18:43;;;;;;;19.38;2.20;;;;;;;;;;5130436;27;20048;-66
2022/01/03 00:21:14;;;;;;;21.08;2.85;;;;;;;;;;5130516;27;20062;-66
2022/01/03 00:23:47;;;;;;;19.67;2.47;;;;;;;;;;5129112;27;20056;-65
2022/01/03 00:26:25;;;;;;;18.95;3.50;;;;;;;;;;5127425;27;20058;-65
2022/01/03 00:29:01;;;;;;;21.83;2.88;;;;;;;;;;5130674;27;20052;-65
2022/01/03 00:31:38;;;;;;;14.85;2.50;;;;;;;;;;5127494;27;20050;-67
2022/01/03 00:34:06;;;;;;;17.05;2.72;;;;;;;;;;5109917;28;20153;-66
2022/01/03 00:36:32;;;;;;;24.95;3.53;;;;;;;;;;5127132;27;20054;-66
2022/01/03 00:38:59;;;;;;;24.83;3.20;;;;;;;;;;5130274;27;20098;-65
2022/01/03 00:41:26;;;;;;;23.30;4.25;;;;;;;;;;5130958;27;20493;-66
2022/01/03 00:43:54;;;;;;;21.90;3.15;;;;;;;;;;5128598;27;20056;-65
2022/01/03 00:46:21;;;;;;;14.55;2.20;;;;;;;;;;5124473;27;20512;-66
2022/01/03 00:48:47;;;;;;;25.75;3.08;;;;;;;;;;5130711;27;20109;-65
2022/01/03 00:51:19;;;;;;;24.83;2.90;;;;;;;;;;5130318;27;20047;-66
2022/01/03 00:53:49;;;;;;;21.90;3.05;;;;;;;;;;5129512;27;20058;-65
2022/01/03 00:56:18;;;;;;;18.27;2.70;;;;;;;;;;5115007;27;20858;-65
2022/01/03 00:58:48;;;;;;;29.10;3.17;;;;;;;;;;5130470;27;20056;-65
2022/01/03 01:01:14;;;;;;;27.40;3.78;;;;;;;;;;5130102;27;20143;-66
2022/01/03 01:03:41;;;;;;;30.77;3.22;;;;;;;;;;5116849;27;20525;-66
2022/01/03 01:06:08;;;;;;;22.15;3.20;;;;;;;;;;5122809;27;20612;-66
2022/01/03 01:08:36;;;;;;;25.52;4.13;;;;;;;;;;5111957;27;20583;-66
2022/01/03 01:11:03;;;;;;;24.42;3.20;;;;;;;;;;5129052;27;20079;-66
2022/01/03 01:13:30;;;;;;;20.23;3.30;;;;;;;;;;5126526;27;20055;-66
2022/01/03 01:15:56;;;;;;;22.88;3.10;;;;;;;;;;5115020;27;20056;-65
2022/01/03 01:18:23;;;;;;;25.73;3.63;;;;;;;;;;5128937;27;20485;-66
2022/01/03 01:20:50;;;;;;;27.88;3.45;;;;;;;;;;5110353;27;20048;-65
2022/01/03 01:23:16;;;;;;;23.42;3.22;;;;;;;;;;5110137;27;20052;-66
2022/01/03 01:28:11;;;;;;;22.88;3.78;;;;;;;;;;5110990;27;20577;-66
2022/01/03 01:30:38;;;;;;;23.55;3.35;;;;;;;;;;5108797;28;20209;-66
2022/01/03 01:33:06;;;;;;;18.73;3.38;;;;;;;;;;5107677;27;20052;-65
2022/01/03 01:36:00;;;;;;;18.10;3.00;;;;;;;;;;5125295;27;20114;-65
2022/01/03 01:38:30;;;;;;;38.40;5.30;;;;;;;;;;5105522;28;20048;-64
2022/01/03 01:40:57;;;;;;;19.30;2.78;;;;;;;;;;5108001;28;20135;-65
2022/01/03 01:43:25;;;;;;;22.15;3.42;;;;;;;;;;5125976;27;20126;-65
2022/01/03 01:45:51;;;;;;;24.73;3.50;;;;;;;;;;5122844;27;20044;-65
2022/01/03 01:48:21;;;;;;;28.33;4.15;;;;;;;;;;5108202;28;20086;-65
2022/01/03 01:50:49;;;;;;;25.10;3.28;;;;;;;;;;5108239;28;20076;-65
2022/01/03 01:53:19;;;;;;;26.38;3.60;;;;;;;;;;5109150;27;20059;-65
2022/01/03 01:55:48;;;;;;;18.48;2.90;;;;;;;;;;5111861;27;20081;-64
2022/01/03 01:58:21;;;;;;;28.85;3.80;;;;;;;;;;5128029;27;20054;-66
2022/01/03 02:00:52;;;;;;;23.77;3.22;;;;;;;;;;5128656;27;20147;-65
2022/01/03 02:03:21;;;;;;;17.50;3.03;;;;;;;;;;5128128;27;20071;-68
2022/01/03 02:05:52;;;;;;;29.38;3.72;;;;;;;;;;5113148;27;20046;-65
2022/01/03 02:08:25;;;;;;;19.52;3.13;;;;;;;;;;5107665;28;20046;-66
2022/01/03 02:11:10;;;;;;;25.83;2.90;;;;;;;;;;5107517;28;20058;-65
2022/01/03 02:13:37;;;;;;;25.45;3.45;;;;;;;;;;5118200;27;20052;-66
2022/01/03 02:16:03;;;;;;;28.20;3.75;;;;;;;;;;5113688;27;20533;-66
2022/01/03 02:18:31;;;;;;;23.67;2.97;;;;;;;;;;5125094;27;20052;-66
2022/01/03 02:20:58;;;;;;;26.60;3.83;;;;;;;;;;5125627;27;20047;-66
2022/01/03 02:23:24;;;;;;;19.42;2.67;;;;;;;;;;5127375;27;20058;-66
2022/01/03 02:25:50;;;;;;;28.23;3.70;;;;;;;;;;5111726;27;20047;-65
2022/01/03 02:28:20;;;;;;;27.45;4.20;;;;;;;;;;5128999;27;20066;-65
2022/01/03 02:30:47;;;;;;;30.08;3.60;;;;;;;;;;5130365;27;20062;-65
2022/01/03 02:33:13;;;;;;;19.80;3.15;;;;;;;;;;5129760;27;20053;-65
2022/01/03 02:35:40;;;;;;;20.55;3.85;;;;;;;;;;5113835;27;20523;-65
2022/01/03 02:38:07;;;;;;;24.75;2.92;;;;;;;;;;5130846;27;20056;-65
2022/01/03 02:40:33;;;;;;;24.55;3.47;;;;;;;;;;5131509;27;20062;-65
2022/01/03 02:42:59;;;;;;;30.85;3.67;;;;;;;;;;5130844;27;20441;-65
2022/01/03 02:45:26;;;;;;;20.88;3.55;;;;;;;;;;5124547;27;20052;-68
2022/01/03 02:47:55;;;;;;;27.90;3.80;;;;;;;;;;5131331;27;20059;-67
2022/01/03 02:50:22;;;;;;;25.15;3.25;;;;;;;;;;5114721;27;20512;-67
2022/01/03 02:52:48;;;;;;;29.08;3.85;;;;;;;;;;5110745;28;20441;-68
2022/01/03 02:55:15;;;;;;;30.52;4.82;;;;;;;;;;5126157;27;20051;-66
2022/01/03 02:57:43;;;;;;;21.98;3.05;;;;;;;;;;5131252;27;20446;-67
2022/01/03 03:00:11;;;;;;;23.58;3.70;;;;;;;;;;5121228;27;20138;-67
2022/01/03 03:02:38;;;;;;;31.38;3.88;;;;;;;;;;5115691;27;20139;-68
2022/01/03 03:05:06;;;;;;;26.67;3.80;;;;;;;;;;5130776;27;20138;-64
2022/01/03 03:07:33;;;;;;;23.65;3.30;;;;;;;;;;5131359;27;20533;-67
2022/01/03 03:09:59;;;;;;;26.60;4.38;;;;;;;;;;5117921;27;20058;-67
2022/01/03 03:12:26;;;;;;;40.47;4.82;;;;;;;;;;5110962;27;20062;-67
2022/01/03 03:14:52;;;;;;;36.92;5.13;;;;;;;;;;5129871;27;20472;-66
2022/01/03 03:17:19;;;;;;;28.88;4.13;;;;;;;;;;5130677;27;20064;-67
2022/01/03 03:19:54;;;;;;;27.95;2.95;;;;;;;;;;5120610;27;20063;-67
2022/01/03 03:22:21;;;;;;;29.25;4.60;;;;;;;;;;5123819;27;20059;-67
2022/01/03 03:24:47;;;;;;;21.33;3.55;;;;;;;;;;5121967;27;20569;-64
2022/01/03 03:27:13;;;;;;;24.23;3.35;;;;;;;;;;5109542;28;20135;-65
2022/01/03 03:29:44;;;;;;;27.15;3.92;;;;;;;;;;5119317;27;20188;-67
2022/01/03 03:32:10;;;;;;;39.20;4.45;;;;;;;;;;5131368;27;20179;-66
2022/01/03 03:34:36;;;;;;;31.58;4.68;;;;;;;;;;5123464;27;20056;-67
2022/01/03 03:37:03;;;;;;;30.67;5.30;;;;;;;;;;5109207;28;20139;-67
2022/01/03 03:39:31;;;;;;;26.73;3.38;;;;;;;;;;5115716;27;20056;-67
2022/01/03 03:41:57;;;;;;;30.45;3.80;;;;;;;;;;5110103;28;20091;-67
2022/01/03 03:44:24;;;;;;;33.38;3.65;;;;;;;;;;5115215;27;20507;-66
2022/01/03 03:46:50;;;;;;;30.23;4.35;;;;;;;;;;5130385;27;20167;-66
2022/01/03 03:49:17;;;;;;;19.75;3.85;;;;;;;;;;5115596;27;20076;-67
2022/01/03 03:51:43;;;;;;;32.78;5.10;;;;;;;;;;5129519;27;20051;-67
2022/01/03 03:54:09;;;;;;;35.15;4.82;;;;;;;;;;5130630;27;20520;-67
2022/01/03 03:56:36;;;;;;;32.22;3.88;;;;;;;;;;5130848;27;20052;-67
2022/01/03 03:59:02;;;;;;;32.22;4.45;;;;;;;;;;5124874;27;20055;-67
2022/01/03 04:01:28;;;;;;;29.80;4.55;;;;;;;;;;5109710;28;20078;-67
2022/01/03 04:03:55;;;;;;;29.85;4.00;;;;;;;;;;5109589;27;20138;-67
2022/01/03 04:06:21;;;;;;;30.35;4.00;;;;;;;;;;5120057;27;20058;-67
2022/01/03 04:08:48;;;;;;;30.35;3.90;;;;;;;;;;5128616;27;20146;-67
2022/01/03 04:11:14;;;;;;;29.88;4.53;;;;;;;;;;5109594;28;20058;-67
2022/01/03 04:13:40;;;;;;;34.55;4.47;;;;;;;;;;5125383;27;20047;-67
2022/01/03 04:16:07;;;;;;;32.30;4.45;;;;;;;;;;5130494;27;20143;-67
2022/01/03 04:18:34;;;;;;;35.67;4.25;;;;;;;;;;5116276;27;20055;-67
2022/01/03 04:21:00;;;;;;;35.65;4.88;;;;;;;;;;5109348;27;20059;-67
2022/01/03 04:23:26;;;;;;;30.55;4.75;;;;;;;;;;5121144;27;20057;-68
2022/01/03 04:25:53;;;;;;;36.13;5.20;;;;;;;;;;5128209;27;20274;-64
2022/01/03 04:28:20;;;;;;;33.45;4.53;;;;;;;;;;5120610;27;20052;-67
2022/01/03 04:30:46;;;;;;;33.03;4.82;;;;;;;;;;5109624;27;20048;-67
2022/01/03 04:33:13;;;;;;;39.35;5.35;;;;;;;;;;5108913;28;20056;-67
2022/01/03 04:35:39;;;;;;;35.38;5.60;;;;;;;;;;5109636;28;20060;-67
2022/01/03 04:38:05;;;;;;;40.53;5.68;;;;;;;;;;5114340;27;20056;-64
2022/01/03 04:40:32;;;;;;;37.15;4.97;;;;;;;;;;5127094;27;20055;-67
2022/01/03 04:42:58;;;;;;;43.15;5.70;;;;;;;;;;5128448;27;20138;-66
2022/01/03 04:45:24;;;;;;;36.35;5.30;;;;;;;;;;5128690;27;20044;-67
2022/01/03 04:47:51;;;;;;;36.60;4.65;;;;;;;;;;5129167;27;20071;-67
2022/01/03 04:50:17;;;;;;;34.50;4.80;;;;;;;;;;5118496;27;20955;-67
2022/01/03 04:52:43;;;;;;;35.67;4.70;;;;;;;;;;5108880;27;20058;-67
2022/01/03 04:55:10;;;;;;;36.45;6.55;;;;;;;;;;5128303;27;20062;-66
2022/01/03 04:57:36;;;;;;;28.08;4.30;;;;;;;;;;5126027;27;20146;-67
2022/01/03 05:00:03;;;;;;;33.70;4.28;;;;;;;;;;5108906;28;20052;-67
2022/01/03 05:02:30;;;;;;;45.92;5.32;;;;;;;;;;5109579;28;20147;-67
2022/01/03 05:04:56;;;;;;;35.45;4.75;;;;;;;;;;5111449;27;20820;-67
2022/01/03 05:07:23;;;;;;;33.67;4.07;;;;;;;;;;5128623;27;20052;-67
2022/01/03 05:09:49;;;;;;;38.30;4.03;;;;;;;;;;5129505;27;20123;-67
2022/01/03 05:12:17;;;;;;;35.40;4.80;;;;;;;;;;5129389;27;20485;-67
2022/01/03 05:14:43;;;;;;;42.67;6.77;;;;;;;;;;5127899;27;20059;-67
2022/01/03 05:17:10;;;;;;;32.63;5.00;;;;;;;;;;5123062;27;20052;-67
2022/01/03 05:19:36;;;;;;;39.22;5.32;;;;;;;;;;5109353;28;20930;-68
2022/01/03 05:22:03;;;;;;;35.25;4.55;;;;;;;;;;5122128;27;20465;-68
2022/01/03 05:24:33;;;;;;;27.70;4.38;;;;;;;;;;5128702;27;20358;-67
2022/01/03 05:27:00;;;;;;;40.13;5.63;;;;;;;;;;5128453;27;20490;-67
2022/01/03 05:29:28;;;;;;;33.80;5.80;;;;;;;;;;5124261;27;20052;-67
2022/01/03 05:31:54;;;;;;;42.03;5.20;;;;;;;;;;5108410;28;20139;-67
2022/01/03 05:34:21;;;;;;;38.28;4.78;;;;;;;;;;5108309;28;20054;-67
2022/01/03 05:36:47;;;;;;;31.92;4.90;;;;;;;;;;5124431;27;20056;-67
2022/01/03 05:39:14;;;;;;;40.38;4.47;;;;;;;;;;5125329;27;20056;-67
2022/01/03 05:41:41;;;;;;;26.98;4.70;;;;;;;;;;5108721;27;20497;-67
2022/01/03 05:44:07;;;;;;;38.90;6.53;;;;;;;;;;5108337;28;20131;-67
2022/01/03 05:46:34;;;;;;;39.03;5.40;;;;;;;;;;5108407;27;20056;-67
2022/01/03 05:49:00;;;;;;;38.90;5.03;;;;;;;;;;5109214;27;20068;-67
2022/01/03 05:51:27;;;;;;;39.80;5.28;;;;;;;;;;5114034;27;20052;-68
2022/01/03 05:53:53;;;;;;;34.78;5.10;;;;;;;;;;5124257;27;20060;-67
2022/01/03 05:56:20;;;;;;;37.70;5.43;;;;;;;;;;5128329;27;20051;-67
2022/01/03 05:58:46;;;;;;;40.42;5.53;;;;;;;;;;5129014;27;20052;-67
2022/01/03 06:01:13;;;;;;;38.45;5.13;;;;;;;;;;5127887;27;20050;-67
2022/01/03 06:03:40;;;;;;;33.15;4.20;;;;;;;;;;5129470;27;20059;-67
2022/01/03 06:08:36;;;;;;;34.42;4.55;;;;;;;;;;5121947;27;20044;-66
2022/01/03 06:11:03;;;;;;;41.75;5.63;;;;;;;;;;5112429;27;20171;-65
2022/01/03 06:13:29;;;;;;;36.55;4.15;;;;;;;;;;5111880;28;20916;-67
2022/01/03 06:15:56;;;;;;;30.00;4.70;;;;;;;;;;5111238;28;20550;-65
2022/01/03 06:18:23;;;;;;;39.30;5.85;;;;;;;;;;5112698;27;20113;-66
2022/01/03 06:20:49;;;;;;;40.65;5.22;;;;;;;;;;5120774;27;20513;-66
2022/01/03 06:23:16;;;;;;;39.38;5.18;;;;;;;;;;5130504;27;20051;-65
2022/01/03 06:25:43;;;;;;;33.78;4.32;;;;;;;;;;5112614;27;20056;-64
2022/01/03 06:28:09;;;;;;;42.78;4.60;;;;;;;;;;5109569;27;20058;-64
2022/01/03 06:30:36;;;;;;;31.10;4.38;;;;;;;;;;5120936;27;20498;-65
2022/01/03 06:33:03;;;;;;;32.58;4.28;;;;;;;;;;5131399;27;20060;-65
2022/01/03 06:35:30;;;;;;;47.30;5.22;;;;;;;;;;5131440;27;20221;-64
2022/01/03 06:37:56;;;;;;;44.22;5.25;;;;;;;;;;5123742;27;20066;-65
2022/01/03 06:40:23;;;;;;;39.55;4.93;;;;;;;;;;5122284;27;20060;-65
2022/01/03 06:42:49;;;;;;;28.05;5.03;;;;;;;;;;5131741;27;20062;-65
2022/01/03 06:45:16;;;;;;;40.80;5.63;;;;;;;;;;5122839;27;20582;-66
2022/01/03 06:47:43;;;;;;;37.33;4.45;;;;;;;;;;5112563;27;20048;-66
2022/01/03 06:50:09;;;;;;;36.53;3.88;;;;;;;;;;5122941;27;20054;-65
2022/01/03 06:52:36;;;;;;;30.42;4.05;;;;;;;;;;5111873;27;20141;-65
2022/01/03 06:55:03;;;;;;;29.23;4.38;;;;;;;;;;5111021;27;20048;-65
2022/01/03 06:57:30;;;;;;;29.75;4.45;;;;;;;;;;5113624;27;20052;-65
2022/01/03 06:59:56;;;;;;;38.60;4.40;;;;;;;;;;5111986;27;20056;-65
2022/01/03 07:02:23;;;;;;;25.15;4.40;;;;;;;;;;5110830;27;20048;-65
2022/01/03 07:04:49;;;;;;;34.83;5.53;;;;;;;;;;5114524;27;20046;-65
2022/01/03 07:07:16;;;;;;;27.83;4.10;;;;;;;;;;5130409;27;20051;-64
2022/01/03 07:09:42;;;;;;;38.90;5.15;;;;;;;;;;5130221;27;20186;-64
2022/01/03 07:12:09;;;;;;;29.58;4.28;;;;;;;;;;5109912;28;20516;-65
2022/01/03 07:19:50;;;;;;;28.63;4.05;;;;;;;;;;5130929;27;20048;-65
2022/01/03 07:22:16;;;;;;;30.30;4.20;;;;;;;;;;5128571;27;20169;-65
2022/01/03 07:24:43;;;;;;;26.08;4.03;;;;;;;;;;5129564;27;20044;-65
2022/01/03 07:27:10;;;;;;;33.33;4.90;;;;;;;;;;5118049;27;20593;-66
2022/01/03 07:29:37;;;;;;;26.20;3.78;;;;;;;;;;5122529;27;20118;-65
2022/01/03 07:32:04;;;;;;;30.15;3.85;;;;;;;;;;5112603;27;20054;-66
2022/01/03 07:34:30;;;;;;;32.47;5.15;;;;;;;;;;5110543;27;20078;-65
2022/01/03 07:36:57;;;;;;;26.52;4.13;;;;;;;;;;5120145;27;20051;-66
2022/01/03 07:39:23;;;;;;;24.10;3.83;;;;;;;;;;5130935;27;20051;-65
2022/01/03 07:41:50;;;;;;;40.78;4.55;;;;;;;;;;5111930;27;20051;-66
2022/01/03 07:44:16;;;;;;;34.97;4.10;;;;;;;;;;5116226;27;20451;-66
2022/01/03 07:46:42;;;;;;;27.50;3.58;;;;;;;;;;5117593;27;20048;-67
2022/01/03 07:49:09;;;;;;;31.88;4.22;;;;;;;;;;5129565;27;20570;-66
2022/01/03 07:51:35;;;;;;;25.58;3.72;;;;;;;;;;5130853;27;20517;-66
2022/01/03 07:54:01;;;;;;;33.03;4.63;;;;;;;;;;5130691;27;20493;-66
2022/01/03 07:56:28;;;;;;;30.70;4.70;;;;;;;;;;5119524;27;20531;-68
2022/01/03 07:58:54;;;;;;;35.75;5.10;;;;;;;;;;5124683;27;20055;-66
2022/01/03 08:01:22;;;;;;;27.88;4.15;;;;;;;;;;5119917;27;20590;-66
2022/01/03 08:03:48;;;;;;;23.13;3.70;;;;;;;;;;5109382;27;20052;-67
2022/01/03 08:06:35;;;;;;;29.80;4.10;;;;;;;;;;5116982;27;20059;-66
2022/01/03 08:09:01;;;;;;;24.80;4.40;;;;;;;;;;5113115;27;20061;-65
2022/01/03 08:11:28;;;;;;;30.08;3.70;;;;;;;;;;5122916;27;20077;-65
2022/01/03 08:13:54;;;;;;;31.90;5.05;;;;;;;;;;5110073;27;20052;-65
2022/01/03 08:16:20;;;;;;;26.45;4.32;;;;;;;;;;5126908;27;20051;-66
2022/01/03 08:18:47;;;;;;;36.22;4.93;;;;;;;;;;5130246;27;20105;-68
2022/01/03 08:21:14;;;;;;;24.67;3.58;;;;;;;;;;5128918;27;20166;-66
2022/01/03 08:23:40;;;;;;;36.20;4.65;;;;;;;;;;5129509;27;20098;-66
2022/01/03 08:26:06;;;;;;;30.92;4.82;;;;;;;;;;5128705;27;20055;-66
2022/01/03 08:28:33;;;;;;;29.73;4.65;;;;;;;;;;5128231;27;20043;-65
2022/01/03 08:30:59;;;;;;;29.02;3.70;;;;;;;;;;5118357;27;20582;-65
2022/01/03 08:33:25;;;;;;;31.00;4.40;;;;;;;;;;5119247;27;20090;-65
2022/01/03 08:35:52;;;;;;;28.60;3.88;;;;;;;;;;5126122;27;20058;-65
2022/01/03 08:38:18;;;;;;;31.80;5.47;;;;;;;;;;5113048;27;20056;-65
2022/01/03 08:40:45;;;;;;;31.65;3.55;;;;;;;;;;5119197;27;20079;-66
2022/01/03 08:43:12;;;;;;;30.93;4.53;;;;;;;;;;5108752;28;20056;-65
2022/01/03 08:45:38;;;;;;;33.83;4.57;;;;;;;;;;5115689;27;20056;-65
2022/01/03 08:48:05;;;;;;;28.13;3.55;;;;;;;;;;5127833;27;20047;-65
2022/01/03 08:50:32;;;;;;;34.55;4.22;;;;;;;;;;5120481;27;20040;-65
2022/01/03 08:52:58;;;;;;;27.10;4.72;;;;;;;;;;5110050;27;20058;-65
2022/01/03 08:55:24;;;;;;;37.75;4.60;;;;;;;;;;5126193;27;20078;-65
2022/01/03 08:57:51;;;;;;;39.10;5.38;;;;;;;;;;5127144;27;20179;-65
2022/01/03 09:00:19;;;;;;;31.90;4.50;;;;;;;;;;5110208;27;20052;-65
2022/01/03 09:02:45;;;;;;;27.98;4.43;;;;;;;;;;5108682;28;20636;-65
2022/01/03 09:05:12;;;;;;;33.40;4.30;;;;;;;;;;5124406;27;20093;-65
2022/01/03 09:07:38;;;;;;;35.45;4.40;;;;;;;;;;5119104;27;20063;-65
2022/01/03 09:10:05;;;;;;;34.22;4.07;;;;;;;;;;5129126;27;20505;-65
2022/01/03 09:12:31;;;;;;;30.05;4.10;;;;;;;;;;5129331;27;20048;-64
2022/01/03 09:14:58;;;;;;;26.08;4.45;;;;;;;;;;5126865;27;20122;-65
2022/01/03 09:17:25;;;;;;;28.02;4.43;;;;;;;;;;5129702;27;20066;-65
2022/01/03 09:19:53;;;;;;;31.02;4.57;;;;;;;;;;5116583;27;20047;-65
2022/01/03 09:22:25;;;;;;;38.53;4.68;;;;;;;;;;5126794;27;20595;-66
2022/01/03 09:28:49;;;;;;;26.40;3.40;;;;;;;;;;5113000;27;20060;-65
2022/01/03 09:30:27;;;;;;;38.17;4.07;;;;;;;;;;5108838;27;20141;-66
2022/01/03 09:32:53;;;;;;;25.17;4.03;;;;;;;;;;5123410;27;20385;-66
2022/01/03 09:35:21;;;;;;;34.08;4.55;;;;;;;;;;5128256;27;20851;-66
2022/01/03 09:37:48;;;;;;;29.95;4.63;;;;;;;;;;5124808;27;20051;-66
2022/01/03 09:40:16;;;;;;;30.38;5.13;;;;;;;;;;5127658;27;20124;-66
2022/01/03 09:42:43;;;;;;;37.03;4.72;;;;;;;;;;5131783;27;20531;-66
2022/01/03 09:45:14;;;;;;;33.55;3.65;;;;;;;;;;5118565;27;20062;-66
2022/01/03 09:47:44;;;;;;;33.92;5.50;;;;;;;;;;5121575;27;20098;-66
2022/01/03 09:50:12;;;;;;;19.10;3.25;;;;;;;;;;5132083;27;20062;-66
2022/01/03 09:52:41;;;;;;;22.67;4.10;;;;;;;;;;5125620;27;20059;-66
2022/01/03 09:55:08;;;;;;;27.17;3.60;;;;;;;;;;5128358;27;20062;-66
2022/01/03 09:57:34;;;;;;;27.08;4.03;;;;;;;;;;5119343;27;20078;-66
2022/01/03 10:00:01;;;;;;;40.15;5.13;;;;;;;;;;5112413;27;20056;-65
2022/01/03 10:02:27;;;;;;;28.55;4.18;;;;;;;;;;5128974;27;20498;-66
2022/01/03 10:04:54;;;;;;;29.80;4.72;;;;;;;;;;5126851;27;20047;-65
2022/01/03 10:07:21;;;;;;;31.42;3.88;;;;;;;;;;5130971;27;20143;-66
2022/01/03 10:09:48;;;;;;;30.83;4.75;;;;;;;;;;5115793;27;20493;-66
2022/01/03 10:12:15;;;;;;;36.33;4.82;;;;;;;;;;5123246;27;20493;-66
2022/01/03 10:14:42;;;;;;;29.20;4.00;;;;;;;;;;5127088;27;20048;-65
2022/01/03 10:17:08;;;;;;;38.85;4.63;;;;;;;;;;5119910;27;20047;-65
2022/01/03 10:19:49;;;;;;;30.50;4.03;;;;;;;;;;5131557;27;20048;-66
2022/01/03 10:22:19;;;;;;;38.83;5.00;;;;;;;;;;5129270;27;20048;-65
2022/01/03 10:24:45;;;;;;;29.45;4.78;;;;;;;;;;5131956;27;20102;-65
2022/01/03 10:27:11;;;;;;;34.88;4.63;;;;;;;;;;5131790;27;20105;-65
2022/01/03 10:29:40;;;;;;;25.90;4.15;;;;;;;;;;5127718;27;20052;-65
2022/01/03 10:32:10;;;;;;;30.13;4.63;;;;;;;;;;5125672;27;20517;-65
2022/01/03 10:34:36;;;;;;;26.58;3.80;;;;;;;;;;5122094;27;20934;-65
2022/01/03 10:37:11;;;;;;;39.80;4.68;;;;;;;;;;5130911;27;20142;-65
2022/01/03 10:39:37;;;;;;;25.27;4.82;;;;;;;;;;5131063;27;20056;-65
2022/01/03 10:42:21;;;;;;;32.88;4.63;;;;;;;;;;5132187;27;20058;-66
2022/01/03 10:44:47;;;;;;;31.52;4.63;;;;;;;;;;5130817;27;20048;-66
2022/01/03 10:47:15;;;;;;;29.73;3.70;;;;;;;;;;5131133;27;20043;-65
2022/01/03 10:49:42;;;;;;;27.10;4.75;;;;;;;;;;5128691;27;20047;-66
2022/01/03 10:52:28;;;;;;;29.50;4.35;;;;;;;;;;5130921;27;20105;-65
2022/01/03 10:55:07;;;;;;;35.28;4.93;;;;;;;;;;5120476;27;20620;-65
2022/01/03 10:57:52;;;;;;;34.03;4.88;;;;;;;;;;5111325;28;20048;-66
2022/01/03 11:00:19;;;;;;;23.58;4.53;;;;;;;;;;5123308;27;20853;-65
2022/01/03 11:05:43;;;;;;;28.83;4.35;;;;;;;;;;5111968;27;20130;-65
2022/01/03 11:10:44;;;;;;;26.10;3.97;;;;;;;;;;5117780;27;20076;-66
2022/01/03 11:13:18;;;;;;;27.45;3.75;;;;;;;;;;5124418;27;20056;-66
2022/01/03 11:15:52;;;;;;;30.13;5.35;;;;;;;;;;5124559;27;20051;-66
2022/01/03 11:18:20;;;;;;;25.77;3.95;;;;;;;;;;5129698;27;20044;-66
2022/01/03 11:20:48;;;;;;;38.72;5.35;;;;;;;;;;5113774;27;20059;-66
2022/01/03 11:23:18;;;;;;;26.88;3.67;;;;;;;;;;5110870;27;20044;-66
2022/01/03 11:25:45;;;;;;;27.13;3.70;;;;;;;;;;5125735;27;20055;-66
2022/01/03 11:28:11;;;;;;;27.80;4.10;;;;;;;;;;5121482;27;20513;-66
2022/01/03 11:30:38;;;;;;;25.65;3.97;;;;;;;;;;5129898;27;20612;-66
2022/01/03 11:33:07;;;;;;;23.73;3.75;;;;;;;;;;5120224;27;20150;-66
2022/01/03 11:35:33;;;;;;;20.63;2.88;;;;;;;;;;5125402;27;20083;-66
2022/01/03 11:38:00;;;;;;;35.08;4.22;;;;;;;;;;5130317;27;20123;-65
2022/01/03 11:40:27;;;;;;;30.52;4.53;;;;;;;;;;5121351;27;20083;-66
2022/01/03 11:42:54;;;;;;;25.67;3.83;;;;;;;;;;5123992;27;20516;-65
2022/01/03 11:45:21;;;;;;;32.50;4.13;;;;;;;;;;5130035;27;20062;-66
2022/01/03 11:47:47;;;;;;;27.88;5.78;;;;;;;;;;5122343;27;20101;-67
2022/01/03 11:50:14;;;;;;;34.15;5.10;;;;;;;;;;5125289;27;20513;-66
2022/01/03 11:52:41;;;;;;;35.78;4.82;;;;;;;;;;5130407;27;20062;-66
2022/01/03 11:55:08;;;;;;;27.10;4.32;;;;;;;;;;5122725;27;20506;-65
2022/01/03 12:03:38;;;;;;;29.75;4.20;;;;;;;;;;5114797;27;20067;-66
2022/01/03 12:06:07;;;;;;;24.45;3.80;;;;;;;;;;5125339;27;20571;-65
2022/01/03 12:08:34;;;;;;;29.08;3.42;;;;;;;;;;5130022;27;20054;-66
2022/01/03 12:11:02;;;;;;;32.05;5.55;;;;;;;;;;5126721;27;20052;-66
2022/01/03 12:13:46;;;;;;;26.37;3.43;;;;;;;;;;5115890;27;20058;-65
2022/01/03 12:16:13;;;;;;;30.48;4.25;;;;;;;;;;5129620;27;20277;-65
2022/01/03 12:18:54;;;;;;;29.33;4.10;;;;;;;;;;5130432;27;20533;-65
2022/01/03 12:21:41;;;;;;;25.50;3.72;;;;;;;;;;5124250;27;20051;-65
2022/01/03 12:24:30;;;;;;;30.88;5.28;;;;;;;;;;5118434;27;20047;-65
2022/01/03 12:27:09;;;;;;;21.27;3.80;;;;;;;;;;5118346;27;20125;-65
2022/01/03 12:29:54;;;;;;;28.25;3.90;;;;;;;;;;5126768;27;20062;-65
2022/01/03 12:32:26;;;;;;;35.28;5.72;;;;;;;;;;5118977;27;20061;-65
2022/01/03 12:35:12;;;;;;;30.35;3.95;;;;;;;;;;5129559;27;20132;-65
2022/01/03 12:37:53;;;;;;;25.92;4.35;;;;;;;;;;5109148;28;20056;-66
2022/01/03 12:40:21;;;;;;;36.47;4.57;;;;;;;;;;5125758;27;20060;-66
2022/01/03 12:42:53;;;;;;;29.03;4.40;;;;;;;;;;5127301;27;20059;-65
2022/01/03 12:45:29;;;;;;;25.98;4.05;;;;;;;;;;5117187;27;20404;-65
2022/01/03 12:48:15;;;;;;;23.70;3.35;;;;;;;;;;5109740;27;20135;-66
2022/01/03 12:50:44;;;;;;;24.65;3.05;;;;;;;;;;5109522;27;20079;-66
2022/01/03 12:53:13;;;;;;;33.63;4.17;;;;;;;;;;5120261;27;20051;-65
2022/01/03 12:55:43;;;;;;;21.50;4.13;;;;;;;;;;5126444;27;20078;-65
2022/01/03 12:58:18;;;;;;;18.02;3.03;;;;;;;;;;5128290;27;20048;-66
2022/01/03 13:00:47;;;;;;;25.23;3.55;;;;;;;;;;5123674;27;20486;-65
2022/01/03 13:03:24;;;;;;;28.70;3.55;;;;;;;;;;5114232;27;21501;-65
2022/01/03 13:06:13;;;;;;;27.20;4.55;;;;;;;;;;5111038;27;20056;-66
2022/01/03 13:08:44;;;;;;;24.45;3.60;;;;;;;;;;5123315;27;20059;-65
2022/01/03 13:11:17;;;;;;;24.55;3.85;;;;;;;;;;5128429;27;20055;-65
2022/01/03 13:13:45;;;;;;;17.05;3.00;;;;;;;;;;5119735;27;20056;-65
2022/01/03 13:16:28;;;;;;;24.83;3.05;;;;;;;;;;5109029;28;20579;-65
2022/01/03 13:18:59;;;;;;;15.60;3.20;;;;;;;;;;5110999;27;20066;-66
2022/01/03 13:21:28;;;;;;;21.55;3.58;;;;;;;;;;5117297;27;20081;-66
2022/01/03 13:24:06;;;;;;;19.58;3.13;;;;;;;;;;5127601;27;20174;-65
2022/01/03 13:26:33;;;;;;;20.95;3.88;;;;;;;;;;5130444;27;20523;-65
2022/01/03 13:29:00;;;;;;;17.08;2.95;;;;;;;;;;5121569;27;20048;-67
2022/01/03 13:31:27;;;;;;;21.77;3.13;;;;;;;;;;5124026;27;20052;-65
2022/01/03 13:33:58;;;;;;;21.45;3.80;;;;;;;;;;5121303;27;20047;-66
2022/01/03 13:36:50;;;;;;;25.17;3.42;;;;;;;;;;5110271;27;20049;-66
2022/01/03 13:39:18;;;;;;;21.80;3.58;;;;;;;;;;5117164;27;20055;-65
2022/01/03 13:41:46;;;;;;;25.35;2.90;;;;;;;;;;5114910;27;20516;-66
2022/01/03 13:44:23;;;;;;;23.43;4.20;;;;;;;;;;5114741;27;20056;-65
2022/01/03 13:49:41;;;;;;;22.48;3.45;;;;;;;;;;5112252;27;20071;-65
2022/01/03 13:52:12;;;;;;;24.40;3.45;;;;;;;;;;5120562;27;20142;-65
2022/01/03 13:54:39;;;;;;;12.00;2.60;;;;;;;;;;5115524;27;20058;-65
2022/01/03 13:57:08;;;;;;;13.70;2.88;;;;;;;;;;5113240;27;20055;-64
2022/01/03 13:59:36;;;;;;;19.33;2.80;;;;;;;;;;5113537;27;20870;-63
2022/01/03 14:02:04;;;;;;;;;;;;;;;;;;5119783;27;20117;-64
2022/01/03 14:04:31;;;;;;;18.83;4.43;;;;;;;;;;5118270;27;45555;-64
2022/01/03 14:07:09;;;;;;;17.50;2.40;;;;;;;;;;5118083;27;20533;-64
2022/01/03 14:09:42;;;;;;;16.85;2.25;;;;;;;;;;5113287;27;20051;-64
2022/01/03 14:12:11;;;;;;;19.10;2.67;;;;;;;;;;5117429;27;20093;-64
2022/01/03 14:14:38;;;;;;;19.80;2.78;;;;;;;;;;5121019;27;20137;-64
2022/01/03 14:17:06;;;;;;;23.50;2.97;;;;;;;;;;5120629;27;20138;-65
2022/01/03 14:19:34;;;;;;;15.35;2.83;;;;;;;;;;5119851;27;20138;-63
2022/01/03 14:22:10;;;;;;;15.27;2.20;;;;;;;;;;5117478;27;20055;-65
2022/01/03 14:24:37;;;;;;;12.30;2.50;;;;;;;;;;5122582;27;20147;-65
2022/01/03 14:27:04;;;;;;;13.15;2.30;;;;;;;;;;5120809;27;20058;-65
2022/01/03 14:29:34;;;;;;;19.17;3.17;;;;;;;;;;5122342;27;20047;-66
2022/01/03 14:32:10;;;;;;;12.82;1.98;;;;;;;;;;5119904;27;20055;-65
2022/01/03 14:34:37;;;;;;;13.07;2.13;;;;;;;;;;5124477;27;20086;-64
2022/01/03 14:37:04;;;;;;;17.02;2.03;;;;;;;;;;5126664;27;20058;-64
2022/01/03 14:39:31;;;;;;;14.83;2.63;;;;;;;;;;5130469;27;20505;-65
2022/01/03 14:42:19;;;;;;;16.73;2.55;;;;;;;;;;5118611;27;20255;-65
2022/01/03 14:44:46;;;;;;;22.23;2.60;;;;;;;;;;5128585;27;20054;-65
2022/01/03 14:47:12;;;;;;;14.68;2.30;;;;;;;;;;5120889;27;20062;-65
2022/01/03 14:49:40;;;;;;;12.43;1.88;;;;;;;;;;5117071;27;20052;-66
2022/01/03 14:52:07;;;;;;;15.52;2.40;;;;;;;;;;5117467;27;20062;-66
2022/01/03 14:54:34;;;;;;;11.77;2.17;;;;;;;;;;5128197;27;20142;-66
2022/01/03 14:57:27;;;;;;;15.07;3.33;;;;;;;;;;5119910;27;20143;-66
2022/01/03 14:59:54;;;;;;;14.93;2.53;;;;;;;;;;5125942;27;20438;-64
2022/01/03 15:02:20;;;;;;;16.38;3.05;;;;;;;;;;5122253;27;20043;-64
2022/01/03 15:04:47;;;;;;;14.27;2.13;;;;;;;;;;5119261;27;20505;-66
2022/01/03 15:07:25;;;;;;;17.15;2.88;;;;;;;;;;5121697;27;20052;-65